sensor_id;sensor_type;location;lat;lon;timestamp;P1;durP1;ratioP1;P2;durP2;ratioP2
23187;SDS011;11762;59.878;17.686;2023-02-22T00:25:23;6.20;;;2.97;;
23187;SDS011;11762;59.878;17.686;2023-02-22T00:27:50;5.97;;;3.40;;
23187;SDS011;11762;59.878;17.686;2023-02-22T00:30:18;4.70;;;2.57;;
23187;SDS011;11762;59.878;17.686;2023-02-22T00:32:48;5.10;;;2.60;;
23187;SDS011;11762;59.878;17.686;2023-02-22T00:35:16;6.63;;;3.03;;
23187;SDS011;11762;59.878;17.686;2023-02-22T00:37:46;5.43;;;2.77;;
23187;SDS011;11762;59.878;17.686;2023-02-22T00:42:43;5.70;;;2.90;;
23187;SDS011;11762;59.878;17.686;2023-02-22T00:45:10;5.53;;;2.60;;
23187;SDS011;11762;59.878;17.686;2023-02-22T00:47:38;5.87;;;3.07;;
23187;SDS011;11762;59.878;17.686;2023-02-22T00:50:05;5.87;;;2.77;;
23187;SDS011;11762;59.878;17.686;2023-02-22T00:52:34;6.97;;;2.90;;
23187;SDS011;11762;59.878;17.686;2023-02-22T00:55:01;5.43;;;2.90;;
23187;SDS011;11762;59.878;17.686;2023-02-22T00:57:30;6.30;;;2.93;;
23187;SDS011;11762;59.878;17.686;2023-02-22T01:00:00;5.33;;;2.70;;
23187;SDS011;11762;59.878;17.686;2023-02-22T01:02:36;7.63;;;3.17;;
23187;SDS011;11762;59.878;17.686;2023-02-22T01:05:03;6.40;;;3.03;;
23187;SDS011;11762;59.878;17.686;2023-02-22T01:07:31;4.60;;;2.47;;
23187;SDS011;11762;59.878;17.686;2023-02-22T01:09:58;4.57;;;2.37;;
23187;SDS011;11762;59.878;17.686;2023-02-22T01:12:26;7.73;;;2.97;;
23187;SDS011;11762;59.878;17.686;2023-02-22T01:14:53;6.70;;;2.97;;
23187;SDS011;11762;59.878;17.686;2023-02-22T01:17:22;5.20;;;2.80;;
23187;SDS011;11762;59.878;17.686;2023-02-22T01:19:49;5.37;;;2.70;;
23187;SDS011;11762;59.878;17.686;2023-02-22T01:22:16;4.93;;;2.43;;
23187;SDS011;11762;59.878;17.686;2023-02-22T01:24:45;5.10;;;2.97;;
23187;SDS011;11762;59.878;17.686;2023-02-22T01:27:12;5.10;;;2.57;;
23187;SDS011;11762;59.878;17.686;2023-02-22T01:29:40;5.07;;;2.67;;
23187;SDS011;11762;59.878;17.686;2023-02-22T01:32:07;4.63;;;2.50;;
23187;SDS011;11762;59.878;17.686;2023-02-22T01:34:37;3.80;;;2.23;;
23187;SDS011;11762;59.878;17.686;2023-02-22T01:37:04;4.00;;;2.10;;
23187;SDS011;11762;59.878;17.686;2023-02-22T01:39:31;4.97;;;2.70;;
23187;SDS011;11762;59.878;17.686;2023-02-22T01:41:58;3.93;;;2.10;;
23187;SDS011;11762;59.878;17.686;2023-02-22T01:44:27;4.80;;;2.17;;
23187;SDS011;11762;59.878;17.686;2023-02-22T01:46:56;4.20;;;2.23;;
23187;SDS011;11762;59.878;17.686;2023-02-22T01:49:25;5.53;;;2.57;;
23187;SDS011;11762;59.878;17.686;2023-02-22T01:51:57;4.40;;;2.57;;
23187;SDS011;11762;59.878;17.686;2023-02-22T01:54:29;5.23;;;2.70;;
23187;SDS011;11762;59.878;17.686;2023-02-22T01:57:02;5.63;;;2.73;;
23187;SDS011;11762;59.878;17.686;2023-02-22T01:59:32;6.07;;;3.20;;
23187;SDS011;11762;59.878;17.686;2023-02-22T02:02:02;4.87;;;2.60;;
23187;SDS011;11762;59.878;17.686;2023-02-22T02:04:31;5.83;;;2.70;;
23187;SDS011;11762;59.878;17.686;2023-02-22T02:07:01;5.77;;;3.17;;
23187;SDS011;11762;59.878;17.686;2023-02-22T02:09:31;6.40;;;3.17;;
23187;SDS011;11762;59.878;17.686;2023-02-22T02:12:02;5.83;;;2.80;;
23187;SDS011;11762;59.878;17.686;2023-02-22T02:14:30;6.33;;;2.73;;
23187;SDS011;11762;59.878;17.686;2023-02-22T02:16:58;5.70;;;2.87;;
23187;SDS011;11762;59.878;17.686;2023-02-22T02:19:30;5.77;;;2.97;;
23187;SDS011;11762;59.878;17.686;2023-02-22T02:22:12;5.30;;;2.67;;
23187;SDS011;11762;59.878;17.686;2023-02-22T02:28:25;5.00;;;2.90;;
23187;SDS011;11762;59.878;17.686;2023-02-22T02:34:28;7.10;;;3.33;;
23187;SDS011;11762;59.878;17.686;2023-02-22T02:37:01;8.87;;;3.43;;
23187;SDS011;11762;59.878;17.686;2023-02-22T02:39:36;8.47;;;3.27;;
23187;SDS011;11762;59.878;17.686;2023-02-22T02:42:07;5.80;;;3.00;;
23187;SDS011;11762;59.878;17.686;2023-02-22T02:44:38;5.93;;;3.03;;
23187;SDS011;11762;59.878;17.686;2023-02-22T02:47:12;7.23;;;3.93;;
23187;SDS011;11762;59.878;17.686;2023-02-22T02:49:45;7.53;;;3.40;;
23187;SDS011;11762;59.878;17.686;2023-02-22T02:52:17;5.47;;;3.37;;
23187;SDS011;11762;59.878;17.686;2023-02-22T02:54:46;7.60;;;3.67;;
23187;SDS011;11762;59.878;17.686;2023-02-22T02:57:14;6.17;;;3.30;;
23187;SDS011;11762;59.878;17.686;2023-02-22T02:59:41;9.40;;;3.83;;
23187;SDS011;11762;59.878;17.686;2023-02-22T03:02:11;8.40;;;3.80;;
23187;SDS011;11762;59.878;17.686;2023-02-22T03:04:54;6.07;;;3.17;;
23187;SDS011;11762;59.878;17.686;2023-02-22T03:07:40;9.77;;;3.67;;
23187;SDS011;11762;59.878;17.686;2023-02-22T03:10:16;7.43;;;3.47;;
23187;SDS011;11762;59.878;17.686;2023-02-22T03:13:11;5.80;;;2.93;;
23187;SDS011;11762;59.878;17.686;2023-02-22T03:15:46;7.57;;;3.60;;
23187;SDS011;11762;59.878;17.686;2023-02-22T03:18:19;5.23;;;3.17;;
23187;SDS011;11762;59.878;17.686;2023-02-22T03:20:57;7.73;;;3.57;;
23187;SDS011;11762;59.878;17.686;2023-02-22T03:23:27;8.57;;;4.10;;
23187;SDS011;11762;59.878;17.686;2023-02-22T03:25:58;6.80;;;3.90;;
23187;SDS011;11762;59.878;17.686;2023-02-22T03:28:29;7.03;;;3.90;;
23187;SDS011;11762;59.878;17.686;2023-02-22T03:30:59;10.73;;;4.30;;
23187;SDS011;11762;59.878;17.686;2023-02-22T03:33:31;8.50;;;3.73;;
23187;SDS011;11762;59.878;17.686;2023-02-22T03:36:06;8.43;;;4.03;;
23187;SDS011;11762;59.878;17.686;2023-02-22T03:38:40;7.07;;;3.67;;
23187;SDS011;11762;59.878;17.686;2023-02-22T03:41:09;6.97;;;3.70;;
23187;SDS011;11762;59.878;17.686;2023-02-22T03:43:43;7.07;;;3.70;;
23187;SDS011;11762;59.878;17.686;2023-02-22T03:46:14;7.13;;;3.97;;
23187;SDS011;11762;59.878;17.686;2023-02-22T03:48:45;10.23;;;4.37;;
23187;SDS011;11762;59.878;17.686;2023-02-22T03:51:19;9.27;;;3.97;;
23187;SDS011;11762;59.878;17.686;2023-02-22T03:53:47;8.93;;;3.50;;
23187;SDS011;11762;59.878;17.686;2023-02-22T03:56:16;7.10;;;4.23;;
23187;SDS011;11762;59.878;17.686;2023-02-22T03:58:46;9.80;;;4.50;;
23187;SDS011;11762;59.878;17.686;2023-02-22T04:01:16;8.03;;;4.17;;
23187;SDS011;11762;59.878;17.686;2023-02-22T04:03:44;8.67;;;3.77;;
23187;SDS011;11762;59.878;17.686;2023-02-22T04:06:11;6.97;;;3.30;;
23187;SDS011;11762;59.878;17.686;2023-02-22T04:08:39;8.93;;;4.17;;
23187;SDS011;11762;59.878;17.686;2023-02-22T04:11:08;6.90;;;3.90;;
23187;SDS011;11762;59.878;17.686;2023-02-22T04:13:35;6.67;;;3.80;;
23187;SDS011;11762;59.878;17.686;2023-02-22T04:16:02;6.23;;;3.50;;
23187;SDS011;11762;59.878;17.686;2023-02-22T04:18:29;9.73;;;3.97;;
23187;SDS011;11762;59.878;17.686;2023-02-22T04:20:56;8.33;;;4.53;;
23187;SDS011;11762;59.878;17.686;2023-02-22T04:23:23;9.37;;;4.37;;
23187;SDS011;11762;59.878;17.686;2023-02-22T04:25:52;9.87;;;4.33;;
23187;SDS011;11762;59.878;17.686;2023-02-22T04:28:19;11.93;;;4.27;;
23187;SDS011;11762;59.878;17.686;2023-02-22T04:30:47;8.10;;;3.80;;
23187;SDS011;11762;59.878;17.686;2023-02-22T04:33:14;8.20;;;4.10;;
23187;SDS011;11762;59.878;17.686;2023-02-22T04:35:41;11.63;;;4.43;;
23187;SDS011;11762;59.878;17.686;2023-02-22T04:38:08;7.13;;;3.87;;
23187;SDS011;11762;59.878;17.686;2023-02-22T04:40:35;8.07;;;4.20;;
23187;SDS011;11762;59.878;17.686;2023-02-22T04:43:04;11.33;;;4.83;;
23187;SDS011;11762;59.878;17.686;2023-02-22T04:45:31;7.37;;;4.23;;
23187;SDS011;11762;59.878;17.686;2023-02-22T04:47:57;9.50;;;5.10;;
23187;SDS011;11762;59.878;17.686;2023-02-22T04:50:25;9.03;;;4.67;;
23187;SDS011;11762;59.878;17.686;2023-02-22T04:52:52;9.37;;;4.60;;
23187;SDS011;11762;59.878;17.686;2023-02-22T04:55:20;10.83;;;4.70;;
23187;SDS011;11762;59.878;17.686;2023-02-22T04:57:47;7.30;;;4.00;;
23187;SDS011;11762;59.878;17.686;2023-02-22T05:00:17;8.13;;;4.20;;
23187;SDS011;11762;59.878;17.686;2023-02-22T05:02:45;7.67;;;4.13;;
23187;SDS011;11762;59.878;17.686;2023-02-22T05:05:13;10.40;;;4.73;;
23187;SDS011;11762;59.878;17.686;2023-02-22T05:07:40;10.57;;;5.07;;
23187;SDS011;11762;59.878;17.686;2023-02-22T05:10:08;8.00;;;4.47;;
23187;SDS011;11762;59.878;17.686;2023-02-22T05:12:36;9.87;;;4.23;;
23187;SDS011;11762;59.878;17.686;2023-02-22T05:15:03;10.80;;;5.20;;
23187;SDS011;11762;59.878;17.686;2023-02-22T05:17:32;10.60;;;5.00;;
23187;SDS011;11762;59.878;17.686;2023-02-22T05:20:00;10.80;;;5.00;;
23187;SDS011;11762;59.878;17.686;2023-02-22T05:22:27;11.87;;;5.20;;
23187;SDS011;11762;59.878;17.686;2023-02-22T05:24:54;10.20;;;4.60;;
23187;SDS011;11762;59.878;17.686;2023-02-22T05:27:22;10.03;;;4.57;;
23187;SDS011;11762;59.878;17.686;2023-02-22T05:29:49;9.93;;;4.53;;
23187;SDS011;11762;59.878;17.686;2023-02-22T05:32:16;13.90;;;5.63;;
23187;SDS011;11762;59.878;17.686;2023-02-22T05:34:44;9.17;;;4.80;;
23187;SDS011;11762;59.878;17.686;2023-02-22T05:37:12;10.00;;;4.60;;
23187;SDS011;11762;59.878;17.686;2023-02-22T05:39:39;8.87;;;4.47;;
23187;SDS011;11762;59.878;17.686;2023-02-22T05:42:06;8.77;;;4.83;;
23187;SDS011;11762;59.878;17.686;2023-02-22T05:44:33;9.50;;;4.90;;
23187;SDS011;11762;59.878;17.686;2023-02-22T05:47:00;9.93;;;4.87;;
23187;SDS011;11762;59.878;17.686;2023-02-22T05:49:27;9.53;;;4.43;;
23187;SDS011;11762;59.878;17.686;2023-02-22T05:51:55;7.20;;;4.20;;
23187;SDS011;11762;59.878;17.686;2023-02-22T05:54:23;11.37;;;4.93;;
23187;SDS011;11762;59.878;17.686;2023-02-22T05:56:51;8.13;;;4.10;;
23187;SDS011;11762;59.878;17.686;2023-02-22T05:59:18;10.87;;;5.13;;
23187;SDS011;11762;59.878;17.686;2023-02-22T06:01:45;10.13;;;4.67;;
23187;SDS011;11762;59.878;17.686;2023-02-22T06:04:12;7.40;;;4.23;;
23187;SDS011;11762;59.878;17.686;2023-02-22T06:06:39;9.37;;;4.23;;
23187;SDS011;11762;59.878;17.686;2023-02-22T06:09:07;8.00;;;4.60;;
23187;SDS011;11762;59.878;17.686;2023-02-22T06:11:34;9.37;;;5.07;;
23187;SDS011;11762;59.878;17.686;2023-02-22T06:14:01;8.63;;;4.53;;
23187;SDS011;11762;59.878;17.686;2023-02-22T06:16:28;9.90;;;5.40;;
23187;SDS011;11762;59.878;17.686;2023-02-22T06:18:56;10.07;;;4.47;;
23187;SDS011;11762;59.878;17.686;2023-02-22T06:21:24;9.00;;;4.87;;
23187;SDS011;11762;59.878;17.686;2023-02-22T06:23:51;9.77;;;5.00;;
23187;SDS011;11762;59.878;17.686;2023-02-22T06:26:19;9.63;;;4.80;;
23187;SDS011;11762;59.878;17.686;2023-02-22T06:28:47;12.30;;;5.13;;
23187;SDS011;11762;59.878;17.686;2023-02-22T06:31:14;13.43;;;6.00;;
23187;SDS011;11762;59.878;17.686;2023-02-22T06:33:41;10.97;;;5.67;;
23187;SDS011;11762;59.878;17.686;2023-02-22T06:36:08;12.27;;;5.63;;
23187;SDS011;11762;59.878;17.686;2023-02-22T06:38:35;10.00;;;5.93;;
23187;SDS011;11762;59.878;17.686;2023-02-22T06:41:02;11.67;;;6.57;;
23187;SDS011;11762;59.878;17.686;2023-02-22T06:43:31;9.33;;;5.77;;
23187;SDS011;11762;59.878;17.686;2023-02-22T06:45:58;10.27;;;5.70;;
23187;SDS011;11762;59.878;17.686;2023-02-22T06:48:25;12.63;;;6.37;;
23187;SDS011;11762;59.878;17.686;2023-02-22T06:50:52;10.10;;;5.50;;
23187;SDS011;11762;59.878;17.686;2023-02-22T06:53:19;10.33;;;6.07;;
23187;SDS011;11762;59.878;17.686;2023-02-22T06:55:46;11.27;;;6.23;;
23187;SDS011;11762;59.878;17.686;2023-02-22T06:58:13;13.57;;;6.13;;
23187;SDS011;11762;59.878;17.686;2023-02-22T07:00:41;14.03;;;7.03;;
23187;SDS011;11762;59.878;17.686;2023-02-22T07:03:08;12.57;;;6.00;;
23187;SDS011;11762;59.878;17.686;2023-02-22T07:05:38;10.90;;;6.00;;
23187;SDS011;11762;59.878;17.686;2023-02-22T07:08:05;13.23;;;6.90;;
23187;SDS011;11762;59.878;17.686;2023-02-22T07:10:33;10.87;;;6.83;;
23187;SDS011;11762;59.878;17.686;2023-02-22T07:13:02;10.57;;;6.30;;
23187;SDS011;11762;59.878;17.686;2023-02-22T07:15:30;11.30;;;6.30;;
23187;SDS011;11762;59.878;17.686;2023-02-22T07:18:00;14.23;;;6.10;;
23187;SDS011;11762;59.878;17.686;2023-02-22T07:20:28;12.87;;;6.97;;
23187;SDS011;11762;59.878;17.686;2023-02-22T07:22:56;12.90;;;6.50;;
23187;SDS011;11762;59.878;17.686;2023-02-22T07:25:23;11.47;;;6.60;;
23187;SDS011;11762;59.878;17.686;2023-02-22T07:27:50;11.70;;;6.70;;
23187;SDS011;11762;59.878;17.686;2023-02-22T07:30:18;12.37;;;6.70;;
23187;SDS011;11762;59.878;17.686;2023-02-22T07:32:49;10.60;;;6.33;;
23187;SDS011;11762;59.878;17.686;2023-02-22T07:35:20;10.37;;;6.23;;
23187;SDS011;11762;59.878;17.686;2023-02-22T07:37:48;9.67;;;5.80;;
23187;SDS011;11762;59.878;17.686;2023-02-22T07:40:15;10.07;;;5.53;;
23187;SDS011;11762;59.878;17.686;2023-02-22T07:42:50;9.77;;;5.43;;
23187;SDS011;11762;59.878;17.686;2023-02-22T07:45:22;10.20;;;5.37;;
23187;SDS011;11762;59.878;17.686;2023-02-22T07:47:50;10.93;;;5.40;;
23187;SDS011;11762;59.878;17.686;2023-02-22T07:50:18;11.73;;;6.23;;
23187;SDS011;11762;59.878;17.686;2023-02-22T07:52:47;12.30;;;5.73;;
23187;SDS011;11762;59.878;17.686;2023-02-22T07:55:17;11.73;;;5.90;;
23187;SDS011;11762;59.878;17.686;2023-02-22T07:57:45;9.27;;;5.63;;
23187;SDS011;11762;59.878;17.686;2023-02-22T08:00:13;9.93;;;5.90;;
23187;SDS011;11762;59.878;17.686;2023-02-22T08:02:42;9.47;;;5.87;;
23187;SDS011;11762;59.878;17.686;2023-02-22T08:05:09;19.23;;;7.20;;
23187;SDS011;11762;59.878;17.686;2023-02-22T08:07:38;17.27;;;7.20;;
23187;SDS011;11762;59.878;17.686;2023-02-22T08:10:06;15.50;;;6.23;;
23187;SDS011;11762;59.878;17.686;2023-02-22T08:12:33;10.77;;;5.60;;
23187;SDS011;11762;59.878;17.686;2023-02-22T08:15:02;10.43;;;5.50;;
23187;SDS011;11762;59.878;17.686;2023-02-22T08:17:30;11.10;;;5.13;;
23187;SDS011;11762;59.878;17.686;2023-02-22T08:19:57;9.37;;;5.70;;
23187;SDS011;11762;59.878;17.686;2023-02-22T08:22:24;11.50;;;5.60;;
23187;SDS011;11762;59.878;17.686;2023-02-22T08:24:54;11.27;;;5.10;;
23187;SDS011;11762;59.878;17.686;2023-02-22T08:27:22;11.93;;;5.90;;
23187;SDS011;11762;59.878;17.686;2023-02-22T08:29:50;12.83;;;5.97;;
23187;SDS011;11762;59.878;17.686;2023-02-22T08:32:17;16.83;;;5.83;;
23187;SDS011;11762;59.878;17.686;2023-02-22T08:34:45;10.50;;;5.67;;
23187;SDS011;11762;59.878;17.686;2023-02-22T08:37:12;9.80;;;4.93;;
23187;SDS011;11762;59.878;17.686;2023-02-22T08:39:40;10.80;;;5.80;;
23187;SDS011;11762;59.878;17.686;2023-02-22T08:42:08;9.97;;;5.00;;
23187;SDS011;11762;59.878;17.686;2023-02-22T08:44:36;16.77;;;5.93;;
23187;SDS011;11762;59.878;17.686;2023-02-22T08:47:04;17.40;;;5.70;;
23187;SDS011;11762;59.878;17.686;2023-02-22T08:49:32;12.07;;;6.07;;
23187;SDS011;11762;59.878;17.686;2023-02-22T08:51:59;12.83;;;5.30;;
23187;SDS011;11762;59.878;17.686;2023-02-22T08:54:26;12.17;;;5.63;;
23187;SDS011;11762;59.878;17.686;2023-02-22T08:56:53;13.43;;;5.53;;
23187;SDS011;11762;59.878;17.686;2023-02-22T08:59:21;13.57;;;5.70;;
23187;SDS011;11762;59.878;17.686;2023-02-22T09:01:48;12.30;;;5.70;;
23187;SDS011;11762;59.878;17.686;2023-02-22T09:04:16;9.03;;;5.17;;
23187;SDS011;11762;59.878;17.686;2023-02-22T09:06:43;14.90;;;5.87;;
23187;SDS011;11762;59.878;17.686;2023-02-22T09:09:15;13.67;;;4.97;;
23187;SDS011;11762;59.878;17.686;2023-02-22T09:11:45;11.27;;;5.33;;
23187;SDS011;11762;59.878;17.686;2023-02-22T09:14:12;10.27;;;5.40;;
23187;SDS011;11762;59.878;17.686;2023-02-22T09:16:42;11.70;;;5.70;;
23187;SDS011;11762;59.878;17.686;2023-02-22T09:19:09;10.33;;;5.13;;
23187;SDS011;11762;59.878;17.686;2023-02-22T09:21:36;12.07;;;5.33;;
23187;SDS011;11762;59.878;17.686;2023-02-22T09:24:04;17.93;;;6.47;;
23187;SDS011;11762;59.878;17.686;2023-02-22T09:26:33;11.20;;;5.80;;
23187;SDS011;11762;59.878;17.686;2023-02-22T09:29:04;8.93;;;5.27;;
23187;SDS011;11762;59.878;17.686;2023-02-22T09:31:34;12.50;;;5.07;;
23187;SDS011;11762;59.878;17.686;2023-02-22T09:34:03;13.90;;;6.07;;
23187;SDS011;11762;59.878;17.686;2023-02-22T09:36:37;16.33;;;6.63;;
23187;SDS011;11762;59.878;17.686;2023-02-22T09:39:05;14.80;;;5.93;;
23187;SDS011;11762;59.878;17.686;2023-02-22T09:41:34;14.93;;;7.03;;
23187;SDS011;11762;59.878;17.686;2023-02-22T09:44:10;15.23;;;5.80;;
23187;SDS011;11762;59.878;17.686;2023-02-22T09:46:43;14.20;;;5.37;;
23187;SDS011;11762;59.878;17.686;2023-02-22T09:49:17;16.93;;;6.33;;
23187;SDS011;11762;59.878;17.686;2023-02-22T09:51:47;23.80;;;6.83;;
23187;SDS011;11762;59.878;17.686;2023-02-22T09:54:20;12.33;;;5.17;;
23187;SDS011;11762;59.878;17.686;2023-02-22T09:56:54;15.13;;;6.60;;
23187;SDS011;11762;59.878;17.686;2023-02-22T09:59:24;33.43;;;6.67;;
23187;SDS011;11762;59.878;17.686;2023-02-22T10:01:57;30.77;;;8.03;;
23187;SDS011;11762;59.878;17.686;2023-02-22T10:04:35;13.47;;;5.37;;
23187;SDS011;11762;59.878;17.686;2023-02-22T10:07:11;12.87;;;4.57;;
23187;SDS011;11762;59.878;17.686;2023-02-22T10:09:46;12.20;;;5.03;;
23187;SDS011;11762;59.878;17.686;2023-02-22T10:12:17;16.37;;;5.53;;
23187;SDS011;11762;59.878;17.686;2023-02-22T10:17:57;14.47;;;5.63;;
23187;SDS011;11762;59.878;17.686;2023-02-22T10:20:41;14.37;;;5.70;;
23187;SDS011;11762;59.878;17.686;2023-02-22T10:23:20;24.60;;;5.57;;
23187;SDS011;11762;59.878;17.686;2023-02-22T10:25:55;18.57;;;5.90;;
23187;SDS011;11762;59.878;17.686;2023-02-22T10:28:31;13.50;;;5.47;;
23187;SDS011;11762;59.878;17.686;2023-02-22T10:31:04;17.20;;;6.23;;
23187;SDS011;11762;59.878;17.686;2023-02-22T10:33:35;21.13;;;6.37;;
23187;SDS011;11762;59.878;17.686;2023-02-22T10:36:08;14.83;;;5.90;;
23187;SDS011;11762;59.878;17.686;2023-02-22T10:38:44;26.10;;;6.37;;
23187;SDS011;11762;59.878;17.686;2023-02-22T10:41:19;17.13;;;4.80;;
23187;SDS011;11762;59.878;17.686;2023-02-22T10:43:51;16.80;;;5.70;;
23187;SDS011;11762;59.878;17.686;2023-02-22T10:46:20;10.93;;;5.70;;
23187;SDS011;11762;59.878;17.686;2023-02-22T10:48:50;12.00;;;5.70;;
23187;SDS011;11762;59.878;17.686;2023-02-22T10:51:20;13.10;;;5.53;;
23187;SDS011;11762;59.878;17.686;2023-02-22T10:53:52;11.53;;;4.90;;
23187;SDS011;11762;59.878;17.686;2023-02-22T10:56:25;14.77;;;6.27;;
23187;SDS011;11762;59.878;17.686;2023-02-22T10:58:53;11.03;;;4.90;;
23187;SDS011;11762;59.878;17.686;2023-02-22T11:01:27;14.87;;;5.03;;
23187;SDS011;11762;59.878;17.686;2023-02-22T11:04:04;15.13;;;5.00;;
23187;SDS011;11762;59.878;17.686;2023-02-22T11:06:38;13.47;;;5.40;;
23187;SDS011;11762;59.878;17.686;2023-02-22T11:09:07;9.67;;;4.90;;
23187;SDS011;11762;59.878;17.686;2023-02-22T11:11:38;15.73;;;4.77;;
23187;SDS011;11762;59.878;17.686;2023-02-22T11:14:06;15.83;;;4.87;;
23187;SDS011;11762;59.878;17.686;2023-02-22T11:16:35;9.23;;;4.13;;
23187;SDS011;11762;59.878;17.686;2023-02-22T11:19:07;7.37;;;3.27;;
23187;SDS011;11762;59.878;17.686;2023-02-22T11:21:46;6.97;;;3.60;;
23187;SDS011;11762;59.878;17.686;2023-02-22T11:24:17;8.17;;;3.63;;
23187;SDS011;11762;59.878;17.686;2023-02-22T11:26:48;6.63;;;3.40;;
23187;SDS011;11762;59.878;17.686;2023-02-22T11:29:19;10.03;;;3.40;;
23187;SDS011;11762;59.878;17.686;2023-02-22T11:31:48;13.10;;;4.07;;
23187;SDS011;11762;59.878;17.686;2023-02-22T11:34:26;13.70;;;4.10;;
23187;SDS011;11762;59.878;17.686;2023-02-22T11:40:11;28.13;;;5.10;;
23187;SDS011;11762;59.878;17.686;2023-02-22T11:42:43;11.77;;;4.90;;
23187;SDS011;11762;59.878;17.686;2023-02-22T11:45:13;8.83;;;3.63;;
23187;SDS011;11762;59.878;17.686;2023-02-22T11:47:51;7.27;;;4.10;;
23187;SDS011;11762;59.878;17.686;2023-02-22T11:50:26;13.87;;;4.70;;
23187;SDS011;11762;59.878;17.686;2023-02-22T11:53:13;12.17;;;4.50;;
23187;SDS011;11762;59.878;17.686;2023-02-22T11:55:55;9.83;;;4.33;;
23187;SDS011;11762;59.878;17.686;2023-02-22T11:58:35;7.87;;;4.17;;
23187;SDS011;11762;59.878;17.686;2023-02-22T12:01:10;9.20;;;4.10;;
23187;SDS011;11762;59.878;17.686;2023-02-22T12:03:46;16.87;;;4.13;;
23187;SDS011;11762;59.878;17.686;2023-02-22T12:06:41;9.00;;;3.50;;
23187;SDS011;11762;59.878;17.686;2023-02-22T12:09:15;13.47;;;3.73;;
23187;SDS011;11762;59.878;17.686;2023-02-22T12:11:50;15.10;;;5.13;;
23187;SDS011;11762;59.878;17.686;2023-02-22T12:14:25;11.73;;;4.17;;
23187;SDS011;11762;59.878;17.686;2023-02-22T12:17:04;8.47;;;4.97;;
23187;SDS011;11762;59.878;17.686;2023-02-22T12:19:40;10.70;;;3.90;;
23187;SDS011;11762;59.878;17.686;2023-02-22T12:22:11;8.60;;;4.07;;
23187;SDS011;11762;59.878;17.686;2023-02-22T12:24:45;10.07;;;3.90;;
23187;SDS011;11762;59.878;17.686;2023-02-22T12:27:17;9.50;;;3.93;;
23187;SDS011;11762;59.878;17.686;2023-02-22T12:29:51;11.23;;;4.67;;
23187;SDS011;11762;59.878;17.686;2023-02-22T12:32:23;6.43;;;3.33;;
23187;SDS011;11762;59.878;17.686;2023-02-22T12:34:58;7.67;;;4.03;;
23187;SDS011;11762;59.878;17.686;2023-02-22T12:37:31;19.07;;;4.50;;
23187;SDS011;11762;59.878;17.686;2023-02-22T12:40:09;16.00;;;3.87;;
23187;SDS011;11762;59.878;17.686;2023-02-22T12:42:45;7.20;;;3.83;;
23187;SDS011;11762;59.878;17.686;2023-02-22T12:45:18;8.77;;;4.33;;
23187;SDS011;11762;59.878;17.686;2023-02-22T12:47:54;10.67;;;3.93;;
23187;SDS011;11762;59.878;17.686;2023-02-22T12:50:28;9.73;;;4.47;;
23187;SDS011;11762;59.878;17.686;2023-02-22T12:52:58;8.90;;;4.10;;
23187;SDS011;11762;59.878;17.686;2023-02-22T12:55:34;11.93;;;3.47;;
23187;SDS011;11762;59.878;17.686;2023-02-22T12:58:13;7.37;;;4.10;;
23187;SDS011;11762;59.878;17.686;2023-02-22T13:00:50;10.90;;;3.40;;
23187;SDS011;11762;59.878;17.686;2023-02-22T13:03:33;9.53;;;4.10;;
23187;SDS011;11762;59.878;17.686;2023-02-22T13:06:12;8.70;;;3.90;;
23187;SDS011;11762;59.878;17.686;2023-02-22T13:09:07;11.23;;;4.33;;
23187;SDS011;11762;59.878;17.686;2023-02-22T13:11:56;7.70;;;3.90;;
23187;SDS011;11762;59.878;17.686;2023-02-22T13:14:32;11.60;;;4.70;;
23187;SDS011;11762;59.878;17.686;2023-02-22T13:17:06;9.00;;;4.60;;
23187;SDS011;11762;59.878;17.686;2023-02-22T13:19:46;14.73;;;4.80;;
23187;SDS011;11762;59.878;17.686;2023-02-22T13:22:22;17.03;;;4.90;;
23187;SDS011;11762;59.878;17.686;2023-02-22T13:24:55;8.13;;;4.47;;
23187;SDS011;11762;59.878;17.686;2023-02-22T13:27:29;9.47;;;4.70;;
23187;SDS011;11762;59.878;17.686;2023-02-22T13:30:03;8.13;;;4.00;;
23187;SDS011;11762;59.878;17.686;2023-02-22T13:32:39;8.10;;;4.07;;
23187;SDS011;11762;59.878;17.686;2023-02-22T13:38:19;12.37;;;5.50;;
23187;SDS011;11762;59.878;17.686;2023-02-22T13:44:09;8.93;;;4.83;;
23187;SDS011;11762;59.878;17.686;2023-02-22T13:47:01;9.57;;;4.63;;
23187;SDS011;11762;59.878;17.686;2023-02-22T13:49:54;14.13;;;4.87;;
23187;SDS011;11762;59.878;17.686;2023-02-22T13:52:42;18.43;;;4.80;;
23187;SDS011;11762;59.878;17.686;2023-02-22T13:55:14;10.97;;;4.90;;
23187;SDS011;11762;59.878;17.686;2023-02-22T13:57:45;8.27;;;4.57;;
23187;SDS011;11762;59.878;17.686;2023-02-22T14:00:19;10.77;;;4.20;;
23187;SDS011;11762;59.878;17.686;2023-02-22T14:02:55;9.07;;;4.90;;
23187;SDS011;11762;59.878;17.686;2023-02-22T14:05:45;11.97;;;4.17;;
23187;SDS011;11762;59.878;17.686;2023-02-22T14:11:04;10.20;;;4.83;;
23187;SDS011;11762;59.878;17.686;2023-02-22T14:16:38;14.60;;;4.90;;
23187;SDS011;11762;59.878;17.686;2023-02-22T14:19:11;10.47;;;4.80;;
23187;SDS011;11762;59.878;17.686;2023-02-22T14:24:27;9.63;;;4.63;;
23187;SDS011;11762;59.878;17.686;2023-02-22T14:26:57;10.47;;;4.70;;
23187;SDS011;11762;59.878;17.686;2023-02-22T14:29:27;13.93;;;5.03;;
23187;SDS011;11762;59.878;17.686;2023-02-22T14:32:04;13.10;;;5.47;;
23187;SDS011;11762;59.878;17.686;2023-02-22T14:34:39;12.03;;;4.53;;
23187;SDS011;11762;59.878;17.686;2023-02-22T14:37:10;12.17;;;4.97;;
23187;SDS011;11762;59.878;17.686;2023-02-22T14:39:40;11.13;;;5.27;;
23187;SDS011;11762;59.878;17.686;2023-02-22T14:42:09;11.80;;;5.10;;
23187;SDS011;11762;59.878;17.686;2023-02-22T14:44:42;11.13;;;5.43;;
23187;SDS011;11762;59.878;17.686;2023-02-22T14:47:18;13.70;;;5.63;;
23187;SDS011;11762;59.878;17.686;2023-02-22T14:49:52;9.53;;;4.83;;
23187;SDS011;11762;59.878;17.686;2023-02-22T14:52:27;10.93;;;4.57;;
23187;SDS011;11762;59.878;17.686;2023-02-22T14:55:01;10.57;;;5.53;;
23187;SDS011;11762;59.878;17.686;2023-02-22T14:57:35;11.07;;;5.03;;
23187;SDS011;11762;59.878;17.686;2023-02-22T15:00:13;11.63;;;5.53;;
23187;SDS011;11762;59.878;17.686;2023-02-22T15:02:48;41.83;;;20.77;;
23187;SDS011;11762;59.878;17.686;2023-02-22T15:05:21;29.10;;;15.53;;
23187;SDS011;11762;59.878;17.686;2023-02-22T15:07:52;13.97;;;6.10;;
23187;SDS011;11762;59.878;17.686;2023-02-22T15:10:27;14.90;;;5.90;;
23187;SDS011;11762;59.878;17.686;2023-02-22T15:12:57;13.17;;;6.20;;
23187;SDS011;11762;59.878;17.686;2023-02-22T15:15:36;13.57;;;7.20;;
23187;SDS011;11762;59.878;17.686;2023-02-22T15:18:13;8.77;;;4.93;;
23187;SDS011;11762;59.878;17.686;2023-02-22T15:20:46;10.53;;;5.43;;
23187;SDS011;11762;59.878;17.686;2023-02-22T15:23:20;10.70;;;5.97;;
23187;SDS011;11762;59.878;17.686;2023-02-22T15:25:48;9.57;;;6.17;;
23187;SDS011;11762;59.878;17.686;2023-02-22T15:28:16;10.23;;;5.57;;
23187;SDS011;11762;59.878;17.686;2023-02-22T15:30:44;9.77;;;4.90;;
23187;SDS011;11762;59.878;17.686;2023-02-22T15:33:14;10.47;;;5.07;;
23187;SDS011;11762;59.878;17.686;2023-02-22T15:35:51;15.00;;;4.87;;
23187;SDS011;11762;59.878;17.686;2023-02-22T15:38:20;7.80;;;4.33;;
23187;SDS011;11762;59.878;17.686;2023-02-22T15:40:59;9.03;;;4.27;;
23187;SDS011;11762;59.878;17.686;2023-02-22T15:43:27;9.03;;;4.43;;
23187;SDS011;11762;59.878;17.686;2023-02-22T15:45:56;10.90;;;4.97;;